Terminal Aerodrome Forecast
Issued by NWS Louisville, KY

Home | Current Version | Previous Version | Text Only | Print | Product List | Glossary On
Versions: 1 2 3 4 5 6 7 8 9 10 11 12 13 14 15 16 17 18 19 20 21
079
FTUS43 KLMK 220520
TAFLEX
TAF
KLEX 220520Z 2206/2306 20005KT P6SM FEW080 SCT200
     FM221600 20009KT P6SM SCT025 BKN090
     FM221800 19010KT P6SM VCTS SCT030CB OVC050
     FM222100 17011KT 5SM -SHRA VCTS SCT015 OVC030CB
     FM222300 17010KT 4SM SHRA VCTS BKN015 OVC025CB
     FM230500 18008KT P6SM BKN020 OVC030=

USA.gov is the U.S. government's official web portal to all federal, state and local government web resources and services.